sensor_id;sensor_type;location;lat;lon;timestamp;temperature;humidity
3944;DHT22;1986;52.546;13.428;2023-06-14T00:01:14;13.70;99.90
3944;DHT22;1986;52.546;13.428;2023-06-14T00:03:41;13.70;99.90
3944;DHT22;1986;52.546;13.428;2023-06-14T00:06:08;13.60;99.90
3944;DHT22;1986;52.546;13.428;2023-06-14T00:08:36;13.60;99.90
3944;DHT22;1986;52.546;13.428;2023-06-14T00:11:03;13.60;99.90
3944;DHT22;1986;52.546;13.428;2023-06-14T00:13:30;13.60;99.90
3944;DHT22;1986;52.546;13.428;2023-06-14T00:15:57;13.50;99.90
3944;DHT22;1986;52.546;13.428;2023-06-14T00:18:25;13.50;99.90
3944;DHT22;1986;52.546;13.428;2023-06-14T00:20:55;13.50;99.90
3944;DHT22;1986;52.546;13.428;2023-06-14T00:23:22;13.50;99.90
3944;DHT22;1986;52.546;13.428;2023-06-14T00:25:50;13.40;99.90
3944;DHT22;1986;52.546;13.428;2023-06-14T00:28:17;13.40;99.90
3944;DHT22;1986;52.546;13.428;2023-06-14T00:30:44;13.30;99.90
3944;DHT22;1986;52.546;13.428;2023-06-14T00:33:12;13.30;99.90
3944;DHT22;1986;52.546;13.428;2023-06-14T00:35:40;13.30;99.90
3944;DHT22;1986;52.546;13.428;2023-06-14T00:38:07;13.30;99.90
3944;DHT22;1986;52.546;13.428;2023-06-14T00:40:33;13.30;99.90
3944;DHT22;1986;52.546;13.428;2023-06-14T00:43:02;13.30;99.90
3944;DHT22;1986;52.546;13.428;2023-06-14T00:45:29;13.30;99.90
3944;DHT22;1986;52.546;13.428;2023-06-14T00:48:01;13.20;99.90
3944;DHT22;1986;52.546;13.428;2023-06-14T00:50:29;13.30;99.90
3944;DHT22;1986;52.546;13.428;2023-06-14T00:52:57;13.30;99.90
3944;DHT22;1986;52.546;13.428;2023-06-14T00:55:25;13.30;99.90
3944;DHT22;1986;52.546;13.428;2023-06-14T00:57:52;13.40;99.90
3944;DHT22;1986;52.546;13.428;2023-06-14T01:00:20;13.40;99.90
3944;DHT22;1986;52.546;13.428;2023-06-14T01:02:47;13.40;99.90
3944;DHT22;1986;52.546;13.428;2023-06-14T01:05:16;13.40;99.90
3944;DHT22;1986;52.546;13.428;2023-06-14T01:07:55;13.40;99.90
3944;DHT22;1986;52.546;13.428;2023-06-14T01:10:32;13.40;99.90
3944;DHT22;1986;52.546;13.428;2023-06-14T01:13:07;13.40;99.90
3944;DHT22;1986;52.546;13.428;2023-06-14T01:15:38;13.40;99.90
3944;DHT22;1986;52.546;13.428;2023-06-14T01:18:06;13.40;99.90
3944;DHT22;1986;52.546;13.428;2023-06-14T01:20:34;13.40;99.90
3944;DHT22;1986;52.546;13.428;2023-06-14T01:23:04;13.40;99.90
3944;DHT22;1986;52.546;13.428;2023-06-14T01:25:31;13.40;99.90
3944;DHT22;1986;52.546;13.428;2023-06-14T01:28:00;13.40;99.90
3944;DHT22;1986;52.546;13.428;2023-06-14T01:30:27;13.40;99.90
3944;DHT22;1986;52.546;13.428;2023-06-14T01:32:56;13.40;99.90
3944;DHT22;1986;52.546;13.428;2023-06-14T01:35:24;13.40;99.90
3944;DHT22;1986;52.546;13.428;2023-06-14T01:37:51;13.30;99.90
3944;DHT22;1986;52.546;13.428;2023-06-14T01:40:21;13.30;99.90
3944;DHT22;1986;52.546;13.428;2023-06-14T01:42:50;13.40;99.90
3944;DHT22;1986;52.546;13.428;2023-06-14T01:45:18;13.10;99.90
3944;DHT22;1986;52.546;13.428;2023-06-14T01:47:46;13.00;99.90
3944;DHT22;1986;52.546;13.428;2023-06-14T01:50:13;12.90;99.90
3944;DHT22;1986;52.546;13.428;2023-06-14T01:52:40;12.80;99.90
3944;DHT22;1986;52.546;13.428;2023-06-14T01:55:08;12.70;99.90
3944;DHT22;1986;52.546;13.428;2023-06-14T01:57:36;12.70;99.90
3944;DHT22;1986;52.546;13.428;2023-06-14T02:00:04;12.70;99.90
3944;DHT22;1986;52.546;13.428;2023-06-14T02:02:36;12.60;99.90
3944;DHT22;1986;52.546;13.428;2023-06-14T02:05:03;12.60;99.90
3944;DHT22;1986;52.546;13.428;2023-06-14T02:07:30;12.50;99.90
3944;DHT22;1986;52.546;13.428;2023-06-14T02:09:57;12.40;99.90
3944;DHT22;1986;52.546;13.428;2023-06-14T02:12:24;12.50;99.90
3944;DHT22;1986;52.546;13.428;2023-06-14T02:14:52;12.40;99.90
3944;DHT22;1986;52.546;13.428;2023-06-14T02:17:20;12.40;99.90
3944;DHT22;1986;52.546;13.428;2023-06-14T02:19:46;12.40;99.90
3944;DHT22;1986;52.546;13.428;2023-06-14T02:22:14;12.40;99.90
3944;DHT22;1986;52.546;13.428;2023-06-14T02:24:41;12.40;99.90
3944;DHT22;1986;52.546;13.428;2023-06-14T02:27:08;12.30;99.90
3944;DHT22;1986;52.546;13.428;2023-06-14T02:29:35;12.30;99.90
3944;DHT22;1986;52.546;13.428;2023-06-14T02:32:04;12.30;99.90
3944;DHT22;1986;52.546;13.428;2023-06-14T02:34:32;12.30;99.90
3944;DHT22;1986;52.546;13.428;2023-06-14T02:36:59;12.20;99.90
3944;DHT22;1986;52.546;13.428;2023-06-14T02:39:28;12.20;99.90
3944;DHT22;1986;52.546;13.428;2023-06-14T02:41:55;12.20;99.90
3944;DHT22;1986;52.546;13.428;2023-06-14T02:44:24;12.20;99.90
3944;DHT22;1986;52.546;13.428;2023-06-14T02:46:52;12.20;99.90
3944;DHT22;1986;52.546;13.428;2023-06-14T02:49:20;12.10;99.90
3944;DHT22;1986;52.546;13.428;2023-06-14T02:51:47;12.10;99.90
3944;DHT22;1986;52.546;13.428;2023-06-14T02:54:14;12.10;99.90
3944;DHT22;1986;52.546;13.428;2023-06-14T02:56:41;12.10;99.90
3944;DHT22;1986;52.546;13.428;2023-06-14T02:59:08;12.10;99.90
3944;DHT22;1986;52.546;13.428;2023-06-14T03:01:35;12.00;99.90
3944;DHT22;1986;52.546;13.428;2023-06-14T03:04:04;12.00;99.90
3944;DHT22;1986;52.546;13.428;2023-06-14T03:06:32;12.00;99.90
3944;DHT22;1986;52.546;13.428;2023-06-14T03:09:00;12.00;99.90
3944;DHT22;1986;52.546;13.428;2023-06-14T03:11:30;12.00;99.90
3944;DHT22;1986;52.546;13.428;2023-06-14T03:13:57;12.00;99.90
3944;DHT22;1986;52.546;13.428;2023-06-14T03:16:24;12.00;99.90
3944;DHT22;1986;52.546;13.428;2023-06-14T03:18:51;11.90;99.90
3944;DHT22;1986;52.546;13.428;2023-06-14T03:21:18;11.90;99.90
3944;DHT22;1986;52.546;13.428;2023-06-14T03:23:47;11.90;99.90
3944;DHT22;1986;52.546;13.428;2023-06-14T03:26:14;11.90;99.90
3944;DHT22;1986;52.546;13.428;2023-06-14T03:28:43;11.90;99.90
3944;DHT22;1986;52.546;13.428;2023-06-14T03:31:10;11.90;99.90
3944;DHT22;1986;52.546;13.428;2023-06-14T03:33:37;11.90;99.90
3944;DHT22;1986;52.546;13.428;2023-06-14T03:36:05;12.00;99.90
3944;DHT22;1986;52.546;13.428;2023-06-14T03:38:32;11.90;99.90
3944;DHT22;1986;52.546;13.428;2023-06-14T03:41:01;11.90;99.90
3944;DHT22;1986;52.546;13.428;2023-06-14T03:43:27;11.90;99.90
3944;DHT22;1986;52.546;13.428;2023-06-14T03:45:55;11.90;99.90
3944;DHT22;1986;52.546;13.428;2023-06-14T03:48:22;12.00;99.90
3944;DHT22;1986;52.546;13.428;2023-06-14T03:50:49;12.00;99.90
3944;DHT22;1986;52.546;13.428;2023-06-14T03:53:16;12.10;99.90
3944;DHT22;1986;52.546;13.428;2023-06-14T03:55:46;12.10;99.90
3944;DHT22;1986;52.546;13.428;2023-06-14T03:58:15;12.10;99.90
3944;DHT22;1986;52.546;13.428;2023-06-14T04:00:42;12.30;99.90
3944;DHT22;1986;52.546;13.428;2023-06-14T04:03:11;12.40;99.90
3944;DHT22;1986;52.546;13.428;2023-06-14T04:05:39;12.50;99.90
3944;DHT22;1986;52.546;13.428;2023-06-14T04:08:07;12.70;99.90
3944;DHT22;1986;52.546;13.428;2023-06-14T04:10:35;12.90;99.90
3944;DHT22;1986;52.546;13.428;2023-06-14T04:13:02;12.80;99.90
3944;DHT22;1986;52.546;13.428;2023-06-14T04:15:31;12.90;99.90
3944;DHT22;1986;52.546;13.428;2023-06-14T04:17:59;13.10;99.90
3944;DHT22;1986;52.546;13.428;2023-06-14T04:20:26;13.20;99.90
3944;DHT22;1986;52.546;13.428;2023-06-14T04:22:56;13.20;99.90
3944;DHT22;1986;52.546;13.428;2023-06-14T04:25:23;13.40;99.90
3944;DHT22;1986;52.546;13.428;2023-06-14T04:27:51;13.50;99.90
3944;DHT22;1986;52.546;13.428;2023-06-14T04:30:19;13.60;99.90
3944;DHT22;1986;52.546;13.428;2023-06-14T04:32:48;13.70;99.90
3944;DHT22;1986;52.546;13.428;2023-06-14T04:35:19;13.70;99.90
3944;DHT22;1986;52.546;13.428;2023-06-14T04:37:46;13.60;99.90
3944;DHT22;1986;52.546;13.428;2023-06-14T04:40:12;13.60;99.90
3944;DHT22;1986;52.546;13.428;2023-06-14T04:42:39;13.60;99.90
3944;DHT22;1986;52.546;13.428;2023-06-14T04:45:10;13.60;99.90
3944;DHT22;1986;52.546;13.428;2023-06-14T04:47:38;13.70;99.90
3944;DHT22;1986;52.546;13.428;2023-06-14T04:50:08;13.80;99.90
3944;DHT22;1986;52.546;13.428;2023-06-14T04:52:35;13.80;99.90
3944;DHT22;1986;52.546;13.428;2023-06-14T04:55:02;13.90;99.90
3944;DHT22;1986;52.546;13.428;2023-06-14T04:57:31;13.80;99.90
3944;DHT22;1986;52.546;13.428;2023-06-14T04:59:58;13.90;99.90
3944;DHT22;1986;52.546;13.428;2023-06-14T05:02:26;14.00;99.90
3944;DHT22;1986;52.546;13.428;2023-06-14T05:04:54;14.20;99.90
3944;DHT22;1986;52.546;13.428;2023-06-14T05:07:26;14.40;99.90
3944;DHT22;1986;52.546;13.428;2023-06-14T05:10:00;14.50;99.90
3944;DHT22;1986;52.546;13.428;2023-06-14T05:12:29;14.50;99.90
3944;DHT22;1986;52.546;13.428;2023-06-14T05:14:56;14.40;99.90
3944;DHT22;1986;52.546;13.428;2023-06-14T05:17:24;14.30;99.90
3944;DHT22;1986;52.546;13.428;2023-06-14T05:19:54;14.30;99.90
3944;DHT22;1986;52.546;13.428;2023-06-14T05:22:25;14.20;99.90
3944;DHT22;1986;52.546;13.428;2023-06-14T05:24:52;14.30;99.90
3944;DHT22;1986;52.546;13.428;2023-06-14T05:27:20;14.40;99.90
3944;DHT22;1986;52.546;13.428;2023-06-14T05:29:47;14.50;99.90
3944;DHT22;1986;52.546;13.428;2023-06-14T05:32:15;14.60;99.90
3944;DHT22;1986;52.546;13.428;2023-06-14T05:34:43;14.60;99.90
3944;DHT22;1986;52.546;13.428;2023-06-14T05:37:10;14.70;99.90
3944;DHT22;1986;52.546;13.428;2023-06-14T05:39:38;14.70;99.90
3944;DHT22;1986;52.546;13.428;2023-06-14T05:42:06;14.90;99.90
3944;DHT22;1986;52.546;13.428;2023-06-14T05:44:33;14.90;99.90
3944;DHT22;1986;52.546;13.428;2023-06-14T05:47:00;14.90;99.90
3944;DHT22;1986;52.546;13.428;2023-06-14T05:49:28;14.90;99.90
3944;DHT22;1986;52.546;13.428;2023-06-14T05:51:56;15.00;99.90
3944;DHT22;1986;52.546;13.428;2023-06-14T05:54:24;15.00;99.90
3944;DHT22;1986;52.546;13.428;2023-06-14T05:56:53;14.90;99.90
3944;DHT22;1986;52.546;13.428;2023-06-14T05:59:20;14.90;99.90
3944;DHT22;1986;52.546;13.428;2023-06-14T06:01:46;14.90;99.90
3944;DHT22;1986;52.546;13.428;2023-06-14T06:04:14;15.00;99.90
3944;DHT22;1986;52.546;13.428;2023-06-14T06:06:41;15.10;99.90
3944;DHT22;1986;52.546;13.428;2023-06-14T06:09:08;15.00;99.90
3944;DHT22;1986;52.546;13.428;2023-06-14T06:11:35;15.00;99.90
3944;DHT22;1986;52.546;13.428;2023-06-14T06:14:03;15.10;99.90
3944;DHT22;1986;52.546;13.428;2023-06-14T06:16:30;15.10;99.90
3944;DHT22;1986;52.546;13.428;2023-06-14T06:18:57;15.10;99.90
3944;DHT22;1986;52.546;13.428;2023-06-14T06:21:27;15.20;99.90
3944;DHT22;1986;52.546;13.428;2023-06-14T06:23:56;15.10;99.90
3944;DHT22;1986;52.546;13.428;2023-06-14T06:26:23;15.10;99.90
3944;DHT22;1986;52.546;13.428;2023-06-14T06:28:52;15.20;99.90
3944;DHT22;1986;52.546;13.428;2023-06-14T06:31:22;15.20;99.90
3944;DHT22;1986;52.546;13.428;2023-06-14T06:33:49;15.30;99.90
3944;DHT22;1986;52.546;13.428;2023-06-14T06:36:16;15.30;99.90
3944;DHT22;1986;52.546;13.428;2023-06-14T06:38:43;15.20;99.90
3944;DHT22;1986;52.546;13.428;2023-06-14T06:41:11;15.30;99.90
3944;DHT22;1986;52.546;13.428;2023-06-14T06:43:38;15.30;99.90
3944;DHT22;1986;52.546;13.428;2023-06-14T06:46:05;15.30;99.90
3944;DHT22;1986;52.546;13.428;2023-06-14T06:48:33;15.40;99.90
3944;DHT22;1986;52.546;13.428;2023-06-14T06:51:00;15.40;99.90
3944;DHT22;1986;52.546;13.428;2023-06-14T06:53:28;15.50;99.90
3944;DHT22;1986;52.546;13.428;2023-06-14T06:55:55;15.60;99.90
3944;DHT22;1986;52.546;13.428;2023-06-14T06:58:22;15.80;99.90
3944;DHT22;1986;52.546;13.428;2023-06-14T07:00:49;15.90;99.90
3944;DHT22;1986;52.546;13.428;2023-06-14T07:03:16;15.90;99.90
3944;DHT22;1986;52.546;13.428;2023-06-14T07:05:45;16.10;99.90
3944;DHT22;1986;52.546;13.428;2023-06-14T07:08:13;16.30;99.90
3944;DHT22;1986;52.546;13.428;2023-06-14T07:10:46;16.30;99.90
3944;DHT22;1986;52.546;13.428;2023-06-14T07:13:13;16.30;99.90
3944;DHT22;1986;52.546;13.428;2023-06-14T07:15:47;16.30;99.90
3944;DHT22;1986;52.546;13.428;2023-06-14T07:18:16;16.20;99.90
3944;DHT22;1986;52.546;13.428;2023-06-14T07:20:45;16.10;99.90
3944;DHT22;1986;52.546;13.428;2023-06-14T07:23:15;16.10;99.90
3944;DHT22;1986;52.546;13.428;2023-06-14T07:25:43;16.10;99.90
3944;DHT22;1986;52.546;13.428;2023-06-14T07:28:10;16.10;99.90
3944;DHT22;1986;52.546;13.428;2023-06-14T07:30:37;16.30;99.90
3944;DHT22;1986;52.546;13.428;2023-06-14T07:33:03;16.40;99.90
3944;DHT22;1986;52.546;13.428;2023-06-14T07:35:31;16.60;99.90
3944;DHT22;1986;52.546;13.428;2023-06-14T07:37:59;17.10;99.90
3944;DHT22;1986;52.546;13.428;2023-06-14T07:40:27;17.80;99.90
3944;DHT22;1986;52.546;13.428;2023-06-14T07:42:54;17.80;99.90
3944;DHT22;1986;52.546;13.428;2023-06-14T07:45:21;18.00;99.90
3944;DHT22;1986;52.546;13.428;2023-06-14T07:47:48;17.90;99.90
3944;DHT22;1986;52.546;13.428;2023-06-14T07:50:15;17.90;99.90
3944;DHT22;1986;52.546;13.428;2023-06-14T07:52:42;18.50;99.90
3944;DHT22;1986;52.546;13.428;2023-06-14T07:55:10;19.50;99.90
3944;DHT22;1986;52.546;13.428;2023-06-14T07:57:38;19.20;99.90
3944;DHT22;1986;52.546;13.428;2023-06-14T08:00:06;19.60;99.90
3944;DHT22;1986;52.546;13.428;2023-06-14T08:02:33;19.80;99.90
3944;DHT22;1986;52.546;13.428;2023-06-14T08:05:00;19.40;99.90
3944;DHT22;1986;52.546;13.428;2023-06-14T08:07:28;19.50;99.90
3944;DHT22;1986;52.546;13.428;2023-06-14T08:09:55;19.60;99.90
3944;DHT22;1986;52.546;13.428;2023-06-14T08:12:23;19.80;99.90
3944;DHT22;1986;52.546;13.428;2023-06-14T08:14:50;21.20;99.90
3944;DHT22;1986;52.546;13.428;2023-06-14T08:17:18;21.40;99.90
3944;DHT22;1986;52.546;13.428;2023-06-14T08:19:45;21.00;99.90
3944;DHT22;1986;52.546;13.428;2023-06-14T08:22:12;20.20;99.90
3944;DHT22;1986;52.546;13.428;2023-06-14T08:24:39;19.70;99.90
3944;DHT22;1986;52.546;13.428;2023-06-14T08:27:07;19.50;99.90
3944;DHT22;1986;52.546;13.428;2023-06-14T08:29:36;20.20;99.90
3944;DHT22;1986;52.546;13.428;2023-06-14T08:32:06;21.40;99.90
3944;DHT22;1986;52.546;13.428;2023-06-14T08:34:33;21.80;99.90
3944;DHT22;1986;52.546;13.428;2023-06-14T08:37:00;23.00;99.90
3944;DHT22;1986;52.546;13.428;2023-06-14T08:39:27;23.30;99.90
3944;DHT22;1986;52.546;13.428;2023-06-14T08:41:55;22.80;99.50
3944;DHT22;1986;52.546;13.428;2023-06-14T08:44:23;21.80;99.60
3944;DHT22;1986;52.546;13.428;2023-06-14T08:46:54;20.90;99.90
3944;DHT22;1986;52.546;13.428;2023-06-14T08:49:23;20.80;99.90
3944;DHT22;1986;52.546;13.428;2023-06-14T08:51:54;20.00;99.90
3944;DHT22;1986;52.546;13.428;2023-06-14T08:54:26;19.80;99.90
3944;DHT22;1986;52.546;13.428;2023-06-14T08:56:55;19.60;99.90
3944;DHT22;1986;52.546;13.428;2023-06-14T08:59:25;19.50;99.90
3944;DHT22;1986;52.546;13.428;2023-06-14T09:01:54;19.30;99.90
3944;DHT22;1986;52.546;13.428;2023-06-14T09:04:22;19.30;99.90
3944;DHT22;1986;52.546;13.428;2023-06-14T09:06:50;19.50;99.90
3944;DHT22;1986;52.546;13.428;2023-06-14T09:09:19;19.70;99.90
3944;DHT22;1986;52.546;13.428;2023-06-14T09:11:46;20.20;99.90
3944;DHT22;1986;52.546;13.428;2023-06-14T09:14:14;20.50;99.90
3944;DHT22;1986;52.546;13.428;2023-06-14T09:16:41;20.40;99.90
3944;DHT22;1986;52.546;13.428;2023-06-14T09:19:14;19.90;99.90
3944;DHT22;1986;52.546;13.428;2023-06-14T09:21:47;19.90;99.90
3944;DHT22;1986;52.546;13.428;2023-06-14T09:24:15;20.10;99.90
3944;DHT22;1986;52.546;13.428;2023-06-14T09:26:46;20.00;99.90
3944;DHT22;1986;52.546;13.428;2023-06-14T09:29:16;19.90;99.90
3944;DHT22;1986;52.546;13.428;2023-06-14T09:31:46;19.80;99.90
3944;DHT22;1986;52.546;13.428;2023-06-14T09:34:16;19.80;99.90
3944;DHT22;1986;52.546;13.428;2023-06-14T09:36:43;20.20;99.90
3944;DHT22;1986;52.546;13.428;2023-06-14T09:39:10;20.20;99.90
3944;DHT22;1986;52.546;13.428;2023-06-14T09:41:43;20.60;99.90
3944;DHT22;1986;52.546;13.428;2023-06-14T09:44:11;20.40;99.90
3944;DHT22;1986;52.546;13.428;2023-06-14T09:46:38;20.50;99.90
3944;DHT22;1986;52.546;13.428;2023-06-14T09:49:06;20.40;99.90
3944;DHT22;1986;52.546;13.428;2023-06-14T09:51:41;20.40;99.90
3944;DHT22;1986;52.546;13.428;2023-06-14T09:54:14;20.60;99.90
3944;DHT22;1986;52.546;13.428;2023-06-14T09:56:47;20.40;99.90
3944;DHT22;1986;52.546;13.428;2023-06-14T09:59:18;20.10;99.90
3944;DHT22;1986;52.546;13.428;2023-06-14T10:01:46;19.90;99.90
3944;DHT22;1986;52.546;13.428;2023-06-14T10:04:15;20.00;99.90
3944;DHT22;1986;52.546;13.428;2023-06-14T10:06:47;20.30;99.90
3944;DHT22;1986;52.546;13.428;2023-06-14T10:09:18;20.20;99.90
3944;DHT22;1986;52.546;13.428;2023-06-14T10:11:50;20.40;99.90
3944;DHT22;1986;52.546;13.428;2023-06-14T10:14:31;20.40;99.90
3944;DHT22;1986;52.546;13.428;2023-06-14T10:17:03;20.30;99.90
3944;DHT22;1986;52.546;13.428;2023-06-14T10:19:36;20.00;99.90
3944;DHT22;1986;52.546;13.428;2023-06-14T10:22:09;20.40;99.90
3944;DHT22;1986;52.546;13.428;2023-06-14T10:24:41;20.20;99.90
3944;DHT22;1986;52.546;13.428;2023-06-14T10:27:09;20.20;99.90
3944;DHT22;1986;52.546;13.428;2023-06-14T10:30:02;20.30;99.90
3944;DHT22;1986;52.546;13.428;2023-06-14T10:32:30;20.50;99.90
3944;DHT22;1986;52.546;13.428;2023-06-14T10:35:00;20.40;99.90
3944;DHT22;1986;52.546;13.428;2023-06-14T10:37:28;20.20;99.90
3944;DHT22;1986;52.546;13.428;2023-06-14T10:39:56;20.20;99.90
3944;DHT22;1986;52.546;13.428;2023-06-14T10:42:27;20.20;99.90
3944;DHT22;1986;52.546;13.428;2023-06-14T10:44:55;20.40;99.90
3944;DHT22;1986;52.546;13.428;2023-06-14T10:47:26;20.10;99.90
3944;DHT22;1986;52.546;13.428;2023-06-14T10:49:56;20.40;99.90
3944;DHT22;1986;52.546;13.428;2023-06-14T10:52:27;20.60;99.90
3944;DHT22;1986;52.546;13.428;2023-06-14T10:55:02;20.90;99.60
3944;DHT22;1986;52.546;13.428;2023-06-14T10:57:31;21.20;99.30
3944;DHT22;1986;52.546;13.428;2023-06-14T10:59:59;21.10;98.70
3944;DHT22;1986;52.546;13.428;2023-06-14T11:02:51;21.10;99.70
3944;DHT22;1986;52.546;13.428;2023-06-14T11:05:24;21.30;98.90
3944;DHT22;1986;52.546;13.428;2023-06-14T11:08:12;21.40;98.70
3944;DHT22;1986;52.546;13.428;2023-06-14T11:10:44;21.20;98.40
3944;DHT22;1986;52.546;13.428;2023-06-14T11:13:12;21.00;97.50
3944;DHT22;1986;52.546;13.428;2023-06-14T11:15:44;21.10;97.30
3944;DHT22;1986;52.546;13.428;2023-06-14T11:18:12;20.90;96.90
3944;DHT22;1986;52.546;13.428;2023-06-14T11:20:40;20.90;96.90
3944;DHT22;1986;52.546;13.428;2023-06-14T11:23:08;21.10;97.30
3944;DHT22;1986;52.546;13.428;2023-06-14T11:25:35;21.10;95.80
3944;DHT22;1986;52.546;13.428;2023-06-14T11:28:02;21.10;95.80
3944;DHT22;1986;52.546;13.428;2023-06-14T11:30:30;21.30;95.20
3944;DHT22;1986;52.546;13.428;2023-06-14T11:32:57;21.30;96.00
3944;DHT22;1986;52.546;13.428;2023-06-14T11:35:25;21.30;95.40
3944;DHT22;1986;52.546;13.428;2023-06-14T11:37:53;21.10;94.50
3944;DHT22;1986;52.546;13.428;2023-06-14T11:40:25;21.10;95.20
3944;DHT22;1986;52.546;13.428;2023-06-14T11:42:58;21.30;94.30
3944;DHT22;1986;52.546;13.428;2023-06-14T11:45:28;21.60;94.40
3944;DHT22;1986;52.546;13.428;2023-06-14T11:47:56;21.60;94.10
3944;DHT22;1986;52.546;13.428;2023-06-14T11:50:23;21.90;94.10
3944;DHT22;1986;52.546;13.428;2023-06-14T11:53:10;22.10;93.20
3944;DHT22;1986;52.546;13.428;2023-06-14T11:55:39;22.10;92.60
3944;DHT22;1986;52.546;13.428;2023-06-14T11:58:07;22.50;92.40
3944;DHT22;1986;52.546;13.428;2023-06-14T12:00:36;21.70;90.30
3944;DHT22;1986;52.546;13.428;2023-06-14T12:03:03;22.10;90.90
3944;DHT22;1986;52.546;13.428;2023-06-14T12:05:30;21.80;88.10
3944;DHT22;1986;52.546;13.428;2023-06-14T12:08:00;21.80;88.60
3944;DHT22;1986;52.546;13.428;2023-06-14T12:10:28;21.90;90.10
3944;DHT22;1986;52.546;13.428;2023-06-14T12:13:00;21.40;88.30
3944;DHT22;1986;52.546;13.428;2023-06-14T12:15:28;21.30;88.00
3944;DHT22;1986;52.546;13.428;2023-06-14T12:17:55;21.60;86.00
3944;DHT22;1986;52.546;13.428;2023-06-14T12:20:22;21.60;81.30
3944;DHT22;1986;52.546;13.428;2023-06-14T12:22:52;21.80;80.80
3944;DHT22;1986;52.546;13.428;2023-06-14T12:25:27;21.90;80.00
3944;DHT22;1986;52.546;13.428;2023-06-14T12:27:58;21.90;80.70
3944;DHT22;1986;52.546;13.428;2023-06-14T12:30:26;21.90;79.70
3944;DHT22;1986;52.546;13.428;2023-06-14T12:32:53;22.00;78.80
3944;DHT22;1986;52.546;13.428;2023-06-14T12:35:20;22.20;78.80
3944;DHT22;1986;52.546;13.428;2023-06-14T12:37:47;22.00;77.00
3944;DHT22;1986;52.546;13.428;2023-06-14T12:40:20;22.30;78.70
3944;DHT22;1986;52.546;13.428;2023-06-14T12:42:47;22.50;77.60
3944;DHT22;1986;52.546;13.428;2023-06-14T12:45:16;22.80;76.20
3944;DHT22;1986;52.546;13.428;2023-06-14T12:47:46;22.60;71.50
3944;DHT22;1986;52.546;13.428;2023-06-14T12:50:15;22.50;72.70
3944;DHT22;1986;52.546;13.428;2023-06-14T12:52:42;22.40;73.50
3944;DHT22;1986;52.546;13.428;2023-06-14T12:55:09;22.20;74.50
3944;DHT22;1986;52.546;13.428;2023-06-14T12:57:38;22.60;74.60
3944;DHT22;1986;52.546;13.428;2023-06-14T13:00:06;22.70;72.60
3944;DHT22;1986;52.546;13.428;2023-06-14T13:02:35;22.90;72.60
3944;DHT22;1986;52.546;13.428;2023-06-14T13:05:06;23.00;70.50
3944;DHT22;1986;52.546;13.428;2023-06-14T13:07:39;22.90;69.30
3944;DHT22;1986;52.546;13.428;2023-06-14T13:10:07;22.70;69.70
3944;DHT22;1986;52.546;13.428;2023-06-14T13:12:36;22.60;70.20
3944;DHT22;1986;52.546;13.428;2023-06-14T13:15:13;22.90;69.40
3944;DHT22;1986;52.546;13.428;2023-06-14T13:17:42;22.90;68.00
3944;DHT22;1986;52.546;13.428;2023-06-14T13:20:14;23.10;69.30
3944;DHT22;1986;52.546;13.428;2023-06-14T13:22:42;23.10;67.10
3944;DHT22;1986;52.546;13.428;2023-06-14T13:25:09;23.20;67.90
3944;DHT22;1986;52.546;13.428;2023-06-14T13:27:36;23.30;66.80
3944;DHT22;1986;52.546;13.428;2023-06-14T13:30:04;23.50;66.50
3944;DHT22;1986;52.546;13.428;2023-06-14T13:32:32;23.30;63.20
3944;DHT22;1986;52.546;13.428;2023-06-14T13:35:03;23.40;64.10
3944;DHT22;1986;52.546;13.428;2023-06-14T13:37:35;23.60;63.00
3944;DHT22;1986;52.546;13.428;2023-06-14T13:40:06;23.40;61.60
3944;DHT22;1986;52.546;13.428;2023-06-14T13:42:33;23.50;61.90
3944;DHT22;1986;52.546;13.428;2023-06-14T13:45:01;23.90;62.70
3944;DHT22;1986;52.546;13.428;2023-06-14T13:47:31;23.60;59.20
3944;DHT22;1986;52.546;13.428;2023-06-14T13:50:03;23.70;59.20
3944;DHT22;1986;52.546;13.428;2023-06-14T13:52:30;23.60;60.00
3944;DHT22;1986;52.546;13.428;2023-06-14T13:54:57;23.80;59.40
3944;DHT22;1986;52.546;13.428;2023-06-14T13:57:25;24.00;60.20
3944;DHT22;1986;52.546;13.428;2023-06-14T13:59:54;24.00;57.20
3944;DHT22;1986;52.546;13.428;2023-06-14T14:02:26;24.00;56.90
3944;DHT22;1986;52.546;13.428;2023-06-14T14:04:54;24.00;56.20
3944;DHT22;1986;52.546;13.428;2023-06-14T14:07:22;24.00;55.90
3944;DHT22;1986;52.546;13.428;2023-06-14T14:09:49;24.30;56.40
3944;DHT22;1986;52.546;13.428;2023-06-14T14:12:19;23.90;54.00
3944;DHT22;1986;52.546;13.428;2023-06-14T14:14:46;23.90;54.20
3944;DHT22;1986;52.546;13.428;2023-06-14T14:17:13;23.60;54.70
3944;DHT22;1986;52.546;13.428;2023-06-14T14:19:40;23.60;55.30
3944;DHT22;1986;52.546;13.428;2023-06-14T14:22:07;23.70;55.80
3944;DHT22;1986;52.546;13.428;2023-06-14T14:24:36;23.80;56.00
3944;DHT22;1986;52.546;13.428;2023-06-14T14:27:03;23.50;56.10
3944;DHT22;1986;52.546;13.428;2023-06-14T14:29:32;23.30;58.30
3944;DHT22;1986;52.546;13.428;2023-06-14T14:32:04;23.20;60.90
3944;DHT22;1986;52.546;13.428;2023-06-14T14:34:31;23.20;62.30
3944;DHT22;1986;52.546;13.428;2023-06-14T14:36:58;23.20;62.60
3944;DHT22;1986;52.546;13.428;2023-06-14T14:39:26;23.00;63.50
3944;DHT22;1986;52.546;13.428;2023-06-14T14:41:55;22.90;64.70
3944;DHT22;1986;52.546;13.428;2023-06-14T14:44:22;22.80;64.30
3944;DHT22;1986;52.546;13.428;2023-06-14T14:46:48;22.70;64.60
3944;DHT22;1986;52.546;13.428;2023-06-14T14:49:15;22.70;65.50
3944;DHT22;1986;52.546;13.428;2023-06-14T14:51:43;22.70;65.30
3944;DHT22;1986;52.546;13.428;2023-06-14T14:54:10;22.50;65.00
3944;DHT22;1986;52.546;13.428;2023-06-14T14:56:39;22.50;66.00
3944;DHT22;1986;52.546;13.428;2023-06-14T14:59:09;22.50;66.60
3944;DHT22;1986;52.546;13.428;2023-06-14T15:01:36;22.50;67.30
3944;DHT22;1986;52.546;13.428;2023-06-14T15:04:06;22.50;66.60
3944;DHT22;1986;52.546;13.428;2023-06-14T15:06:33;22.30;66.70
3944;DHT22;1986;52.546;13.428;2023-06-14T15:09:01;22.20;67.30
3944;DHT22;1986;52.546;13.428;2023-06-14T15:11:28;22.20;67.50
3944;DHT22;1986;52.546;13.428;2023-06-14T15:13:55;22.10;68.20
3944;DHT22;1986;52.546;13.428;2023-06-14T15:16:24;22.00;67.60
3944;DHT22;1986;52.546;13.428;2023-06-14T15:18:50;22.10;68.10
3944;DHT22;1986;52.546;13.428;2023-06-14T15:21:17;22.20;68.30
3944;DHT22;1986;52.546;13.428;2023-06-14T15:23:45;22.20;68.10
3944;DHT22;1986;52.546;13.428;2023-06-14T15:26:12;22.30;68.30
3944;DHT22;1986;52.546;13.428;2023-06-14T15:28:39;22.30;67.60
3944;DHT22;1986;52.546;13.428;2023-06-14T15:31:06;22.30;66.60
3944;DHT22;1986;52.546;13.428;2023-06-14T15:33:34;22.40;67.00
3944;DHT22;1986;52.546;13.428;2023-06-14T15:36:01;22.60;67.10
3944;DHT22;1986;52.546;13.428;2023-06-14T15:38:29;22.70;66.60
3944;DHT22;1986;52.546;13.428;2023-06-14T15:40:58;22.90;65.60
3944;DHT22;1986;52.546;13.428;2023-06-14T15:43:25;23.20;65.70
3944;DHT22;1986;52.546;13.428;2023-06-14T15:45:52;23.30;65.00
3944;DHT22;1986;52.546;13.428;2023-06-14T15:48:19;23.50;65.10
3944;DHT22;1986;52.546;13.428;2023-06-14T15:50:47;23.60;64.20
3944;DHT22;1986;52.546;13.428;2023-06-14T15:53:14;23.30;64.40